Time;durP1;ratioP1;P1;durP2;ratioP2;P2;SDS_P1;SDS_P2;PMS_P1;PMS_P2;Temp;Humidity;BMP_temperature;BMP_pressure;BME280_temperature;BME280_humidity;BME280_pressure;Samples;Min_cycle;Max_cycle;Signal;HPM_P1;HPM_P2
2022/07/31 00:00:11;;;;;;;6.85;4.95;;;15.30;99.90;;;;;;5091293;28;20040;-61
2022/07/31 00:02:40;;;;;;;5.22;4.50;;;15.20;99.90;;;;;;5093208;28;20042;-61
2022/07/31 00:05:08;;;;;;;7.97;4.68;;;15.20;99.90;;;;;;5093433;28;20059;-61
2022/07/31 00:07:34;;;;;;;5.80;5.03;;;15.30;99.90;;;;;;5093309;28;20043;-61
2022/07/31 00:10:02;;;;;;;6.22;4.88;;;15.20;99.90;;;;;;5089944;28;20381;-61
2022/07/31 00:12:29;;;;;;;6.60;4.97;;;15.20;99.90;;;;;;5093137;28;20039;-61
2022/07/31 00:14:55;;;;;;;13.88;5.40;;;15.20;99.90;;;;;;5093040;28;20040;-61
2022/07/31 00:17:22;;;;;;;6.22;5.20;;;15.20;99.90;;;;;;5093248;28;20078;-61
2022/07/31 00:19:49;;;;;;;5.05;4.50;;;15.20;99.90;;;;;;5086061;28;20489;-61
2022/07/31 00:22:16;;;;;;;3.97;3.63;;;15.20;99.90;;;;;;5092815;28;20049;-61
2022/07/31 00:24:42;;;;;;;4.80;3.70;;;15.20;99.90;;;;;;5093033;28;20059;-61
2022/07/31 00:27:09;;;;;;;6.70;4.15;;;15.20;99.90;;;;;;5091581;28;20044;-62
2022/07/31 00:29:37;;;;;;;5.53;4.80;;;15.30;99.90;;;;;;5088663;28;20070;-61
2022/07/31 00:32:05;;;;;;;10.63;5.20;;;15.20;99.90;;;;;;5091022;28;20166;-62
2022/07/31 00:34:31;;;;;;;6.80;4.65;;;15.20;99.90;;;;;;5091492;28;20044;-61
2022/07/31 00:37:01;;;;;;;6.40;4.97;;;15.20;99.90;;;;;;5090897;28;20483;-61
2022/07/31 00:39:29;;;;;;;6.47;5.10;;;15.20;99.90;;;;;;5087279;28;20098;-62
2022/07/31 00:41:56;;;;;;;5.45;4.88;;;15.20;99.90;;;;;;5092447;28;20036;-61
2022/07/31 00:44:23;;;;;;;9.25;4.53;;;15.20;99.90;;;;;;5091379;28;20134;-62
2022/07/31 00:46:51;;;;;;;8.27;5.10;;;15.20;99.90;;;;;;5082645;28;20097;-62
2022/07/31 00:49:19;;;;;;;8.45;4.93;;;15.10;99.90;;;;;;5112971;22;20052;-66
2022/07/31 00:51:46;;;;;;;7.95;5.10;;;15.10;99.90;;;;;;5094410;27;20519;-66
2022/07/31 00:54:14;;;;;;;7.72;3.83;;;15.00;99.90;;;;;;5115721;27;20054;-67
2022/07/31 00:56:50;;;;;;;5.13;4.32;;;15.10;99.90;;;;;;5093178;28;20036;-66
2022/07/31 00:59:17;;;;;;;6.05;4.82;;;15.10;99.90;;;;;;5098869;28;20043;-66
2022/07/31 01:01:50;;;;;;;5.20;4.70;;;15.10;99.90;;;;;;5076950;28;20074;-66
2022/07/31 01:04:17;;;;;;;7.30;4.70;;;15.10;99.90;;;;;;5093500;28;20530;-66
2022/07/31 01:06:46;;;;;;;7.80;4.95;;;15.10;99.90;;;;;;5089420;27;20553;-66
2022/07/31 01:09:13;;;;;;;4.85;4.38;;;15.10;99.90;;;;;;5099075;28;20044;-66
2022/07/31 01:11:52;;;;;;;5.00;4.50;;;15.10;99.90;;;;;;5091367;28;20137;-66
2022/07/31 01:14:24;;;;;;;4.82;4.32;;;15.10;99.90;;;;;;5092289;27;20048;-67
2022/07/31 01:16:52;;;;;;;4.90;4.43;;;15.10;99.90;;;;;;5110282;27;20047;-67
2022/07/31 01:19:33;;;;;;;5.18;3.70;;;15.10;99.90;;;;;;5095216;28;20035;-66
2022/07/31 01:22:46;;;;;;;4.95;3.95;;;15.10;99.90;;;;;;5094853;28;20048;-66
2022/07/31 01:25:36;;;;;;;5.82;4.78;;;15.10;99.90;;;;;;5089726;28;20508;-67
2022/07/31 01:28:40;;;;;;;4.95;4.43;;;15.00;99.90;;;;;;5095060;28;20071;-66
2022/07/31 01:31:12;;;;;;;5.25;4.18;;;15.00;99.90;;;;;;5112903;28;20043;-66
2022/07/31 01:34:19;;;;;;;4.90;4.38;;;15.00;99.90;;;;;;5086293;27;20048;-66
2022/07/31 01:37:11;;;;;;;4.78;3.55;;;15.00;99.90;;;;;;5093745;28;20052;-66
2022/07/31 01:39:47;;;;;;;4.40;4.00;;;15.00;99.90;;;;;;5091413;28;20048;-66
2022/07/31 01:42:17;;;;;;;5.78;4.40;;;15.00;99.90;;;;;;5099788;28;20454;-67
2022/07/31 01:44:49;;;;;;;6.32;4.63;;;15.00;99.90;;;;;;5111893;27;20047;-66
2022/07/31 01:47:20;;;;;;;6.65;4.25;;;14.90;99.90;;;;;;5114916;27;20039;-67
2022/07/31 01:49:50;;;;;;;8.00;4.18;;;14.90;99.90;;;;;;5114321;27;20155;-67
2022/07/31 01:52:23;;;;;;;4.72;3.88;;;14.90;99.90;;;;;;5114818;27;20062;-66
2022/07/31 01:54:51;;;;;;;5.60;4.60;;;14.80;99.90;;;;;;5076250;28;20040;-66
2022/07/31 01:57:22;;;;;;;6.72;4.60;;;14.90;99.90;;;;;;5074087;28;20499;-67
2022/07/31 01:59:57;;;;;;;5.43;4.50;;;14.90;99.90;;;;;;5093521;28;20051;-66
2022/07/31 02:02:40;;;;;;;6.72;3.90;;;14.90;99.90;;;;;;5116535;27;20121;-67
2022/07/31 02:05:10;;;;;;;6.22;4.38;;;14.90;99.90;;;;;;5094332;28;20061;-66
2022/07/31 02:07:42;;;;;;;6.07;3.70;;;14.80;99.90;;;;;;5093856;28;20043;-67
2022/07/31 02:10:12;;;;;;;4.28;3.80;;;14.80;99.90;;;;;;5098148;27;20130;-66
2022/07/31 02:12:40;;;;;;;5.28;3.80;;;14.80;99.90;;;;;;5114610;27;20667;-66
2022/07/31 02:15:11;;;;;;;9.30;4.97;;;14.80;99.90;;;;;;5110458;28;20051;-66
2022/07/31 02:17:42;;;;;;;7.55;5.10;;;14.70;99.90;;;;;;5102474;27;20134;-66
2022/07/31 02:20:39;;;;;;;5.32;4.82;;;14.80;99.90;;;;;;5091151;28;20055;-67
2022/07/31 02:23:06;;;;;;;5.55;4.78;;;14.70;99.90;;;;;;5073717;28;20438;-66
2022/07/31 02:25:35;;;;;;;8.18;5.88;;;14.70;99.90;;;;;;5086098;28;20038;-66
2022/07/31 02:28:08;;;;;;;8.30;6.45;;;14.70;99.90;;;;;;5119212;27;20039;-66
2022/07/31 02:30:40;;;;;;;9.20;5.80;;;14.70;99.90;;;;;;5093650;28;20519;-66
2022/07/31 02:33:20;;;;;;;10.25;6.97;;;14.60;99.90;;;;;;5086189;28;20063;-66
2022/07/31 02:35:49;;;;;;;6.82;5.30;;;14.60;99.90;;;;;;5094773;27;20053;-66
2022/07/31 02:38:18;;;;;;;6.45;5.65;;;14.60;99.90;;;;;;5114126;27;20043;-66
2022/07/31 02:40:56;;;;;;;5.88;5.35;;;14.70;99.90;;;;;;5113767;28;20472;-66
2022/07/31 02:43:24;;;;;;;6.25;5.43;;;14.70;99.90;;;;;;5082496;28;20097;-66
2022/07/31 02:45:54;;;;;;;5.93;5.32;;;14.70;99.90;;;;;;5090974;28;20151;-66
2022/07/31 02:48:22;;;;;;;6.53;5.65;;;14.80;99.90;;;;;;5093521;28;20065;-66
2022/07/31 02:50:51;;;;;;;5.97;5.10;;;14.80;99.90;;;;;;5094355;28;20047;-66
2022/07/31 02:53:19;;;;;;;8.45;6.00;;;14.70;99.90;;;;;;5105108;28;20074;-66
2022/07/31 02:55:50;;;;;;;7.43;6.47;;;14.70;99.90;;;;;;5114106;28;20055;-67
2022/07/31 02:58:17;;;;;;;10.43;6.28;;;14.60;99.90;;;;;;5113831;28;20069;-66
2022/07/31 03:00:44;;;;;;;8.60;6.40;;;14.60;99.90;;;;;;5103326;28;20057;-67
2022/07/31 03:03:12;;;;;;;9.45;6.35;;;14.60;99.90;;;;;;5097407;28;20074;-66
2022/07/31 03:05:39;;;;;;;;;;;14.60;99.90;;;;;;5090505;28;20078;-66
2022/07/31 03:08:06;;;;;;;4.97;4.10;;;14.50;99.90;;;;;;5095034;28;19924;-66
2022/07/31 03:10:36;;;;;;;4.93;4.40;;;14.60;99.90;;;;;;5085055;28;20151;-66
2022/07/31 03:13:05;;;;;;;6.50;4.88;;;14.50;99.90;;;;;;5093131;28;20047;-66
2022/07/31 03:15:33;;;;;;;5.43;4.57;;;14.50;99.90;;;;;;5093302;28;20439;-67
2022/07/31 03:18:00;;;;;;;5.50;4.20;;;14.50;99.90;;;;;;5118085;28;20053;-67
2022/07/31 03:20:38;;;;;;;3.92;3.53;;;14.50;99.90;;;;;;5076326;28;20105;-66
2022/07/31 03:23:05;;;;;;;;;;;14.50;99.90;;;;;;5073587;28;20530;-66
2022/07/31 03:25:43;;;;;;;4.38;3.53;;;14.40;99.90;;;;;;5092593;28;19930;-66
2022/07/31 03:28:10;;;;;;;;;;;14.40;99.90;;;;;;5124035;28;20381;-66
2022/07/31 03:30:37;;;;;;;7.78;3.80;;;14.50;99.90;;;;;;5112962;28;19924;-66
2022/07/31 03:33:05;;;;;;;7.30;4.60;;;14.40;99.90;;;;;;5095501;28;20481;-66
2022/07/31 03:35:35;;;;;;;8.52;5.72;;;14.40;99.90;;;;;;5092851;28;20043;-67
2022/07/31 03:38:08;;;;;;;5.80;5.15;;;14.40;99.90;;;;;;5084455;28;20048;-67
2022/07/31 03:40:55;;;;;;;6.00;5.40;;;14.40;99.90;;;;;;5085263;28;20071;-66
2022/07/31 03:43:23;;;;;;;11.50;5.70;;;14.40;99.90;;;;;;5092838;28;20055;-66
2022/07/31 03:45:51;;;;;;;5.40;4.45;;;14.40;99.90;;;;;;5083985;28;20032;-66
2022/07/31 03:48:18;;;;;;;4.82;3.60;;;14.40;99.90;;;;;;5098905;28;20040;-66
2022/07/31 03:50:45;;;;;;;4.72;3.92;;;14.30;99.90;;;;;;5090254;28;20044;-67
2022/07/31 03:53:13;;;;;;;4.50;3.78;;;14.30;99.90;;;;;;5083315;28;20047;-66
2022/07/31 03:55:43;;;;;;;4.60;4.20;;;14.30;99.90;;;;;;5090139;28;20075;-67
2022/07/31 03:58:11;;;;;;;8.05;4.30;;;14.30;99.90;;;;;;5089931;28;20051;-67
2022/07/31 04:00:39;;;;;;;5.07;4.07;;;14.30;99.90;;;;;;5087761;28;20048;-67
2022/07/31 04:03:11;;;;;;;6.18;4.30;;;14.30;99.90;;;;;;5085124;28;20395;-67
2022/07/31 04:05:48;;;;;;;6.97;4.32;;;14.30;99.90;;;;;;5089313;28;20051;-67
2022/07/31 04:08:15;;;;;;;9.00;5.72;;;14.30;99.90;;;;;;5096134;28;20040;-66
2022/07/31 04:10:43;;;;;;;5.22;4.55;;;14.30;99.90;;;;;;5081590;28;20051;-67
2022/07/31 04:13:12;;;;;;;8.43;5.28;;;14.30;99.90;;;;;;5087501;28;20043;-66
2022/07/31 04:15:39;;;;;;;8.63;5.30;;;14.40;99.90;;;;;;5080538;28;20048;-67
2022/07/31 04:18:06;;;;;;;5.57;4.72;;;14.30;99.90;;;;;;5090623;28;20040;-67
2022/07/31 04:20:38;;;;;;;6.75;4.90;;;14.30;99.90;;;;;;5080174;28;20410;-67
2022/07/31 04:23:06;;;;;;;5.07;4.50;;;14.40;99.90;;;;;;5082588;28;20043;-67
2022/07/31 04:25:51;;;;;;;4.97;4.18;;;14.40;99.90;;;;;;5106407;27;20117;-67
2022/07/31 04:28:25;;;;;;;5.28;4.30;;;14.40;99.90;;;;;;5110811;28;20112;-67
2022/07/31 04:30:52;;;;;;;5.38;4.28;;;14.50;99.90;;;;;;5085464;28;20050;-67
2022/07/31 04:33:18;;;;;;;5.47;4.60;;;14.50;99.90;;;;;;5086509;28;20068;-67
2022/07/31 04:35:46;;;;;;;9.73;6.07;;;14.60;99.90;;;;;;5094683;28;20085;-67
2022/07/31 04:38:15;;;;;;;7.63;5.70;;;14.60;99.90;;;;;;5099238;28;20377;-67
2022/07/31 04:40:42;;;;;;;7.55;5.43;;;14.70;99.90;;;;;;5088471;28;20143;-67
2022/07/31 04:43:09;;;;;;;9.15;5.85;;;14.80;99.90;;;;;;5113946;28;20063;-67
2022/07/31 04:45:36;;;;;;;7.10;5.75;;;14.80;99.90;;;;;;5087124;28;20089;-67
2022/07/31 04:48:03;;;;;;;7.07;5.63;;;14.80;99.90;;;;;;5076569;27;20040;-67
2022/07/31 04:50:30;;;;;;;;;;;14.90;99.90;;;;;;5088272;28;20047;-67
2022/07/31 04:52:57;;;;;;;7.65;4.75;;;14.90;99.90;;;;;;5132348;27;19919;-67
2022/07/31 04:55:30;;;;;;;6.47;5.15;;;14.90;99.90;;;;;;5116207;27;20134;-67
2022/07/31 04:57:57;;;;;;;6.00;5.40;;;14.90;99.90;;;;;;5110585;27;20087;-67
2022/07/31 05:00:25;;;;;;;5.50;5.00;;;14.90;99.90;;;;;;5106697;27;20495;-67
2022/07/31 05:02:52;;;;;;;6.68;5.47;;;14.90;99.90;;;;;;5115803;27;20087;-67
2022/07/31 05:05:21;;;;;;;6.10;4.82;;;14.90;99.90;;;;;;5107634;28;20070;-67
2022/07/31 05:07:48;;;;;;;5.47;4.93;;;14.90;99.90;;;;;;5086116;28;20047;-67
2022/07/31 05:13:03;;;;;;;5.35;4.82;;;14.90;99.90;;;;;;5094967;28;20066;-67
2022/07/31 05:15:31;;;;;;;7.50;4.78;;;14.90;99.90;;;;;;5103161;28;20131;-67
2022/07/31 05:17:58;;;;;;;7.03;4.45;;;14.90;99.90;;;;;;5075790;28;20114;-67
2022/07/31 05:20:43;;;;;;;6.60;4.30;;;14.90;99.90;;;;;;5093057;28;20136;-66
2022/07/31 05:23:29;;;;;;;6.68;4.60;;;14.90;99.90;;;;;;5066698;28;20044;-67
2022/07/31 05:26:18;;;;;;;4.88;4.38;;;14.90;99.90;;;;;;5119750;27;20084;-67
2022/07/31 05:28:46;;;;;;;7.85;5.03;;;14.90;99.90;;;;;;5115313;27;20039;-67
2022/07/31 05:31:13;;;;;;;5.82;4.50;;;14.90;99.90;;;;;;5102340;28;20043;-67
2022/07/31 05:33:39;;;;;;;4.95;4.40;;;14.90;99.90;;;;;;5086364;28;20051;-67
2022/07/31 05:36:06;;;;;;;7.00;4.65;;;15.00;99.90;;;;;;5113126;28;20047;-67
2022/07/31 05:38:33;;;;;;;10.13;4.88;;;15.10;99.90;;;;;;5112955;28;20431;-67
2022/07/31 05:41:12;;;;;;;5.50;3.97;;;15.20;99.90;;;;;;5118921;27;20516;-67
2022/07/31 05:43:58;;;;;;;6.00;4.03;;;15.20;99.90;;;;;;5132786;27;20155;-66
2022/07/31 05:46:33;;;;;;;6.93;4.10;;;15.30;99.90;;;;;;5115084;27;20740;-67
2022/07/31 05:48:59;;;;;;;8.65;4.35;;;15.30;99.90;;;;;;5101104;27;20443;-66
2022/07/31 05:51:26;;;;;;;7.65;4.38;;;15.30;99.90;;;;;;5096189;28;20042;-66
2022/07/31 05:53:53;;;;;;;5.57;4.60;;;15.40;99.90;;;;;;5092400;28;20428;-67
2022/07/31 05:56:38;;;;;;;7.35;3.97;;;15.30;99.90;;;;;;5092769;28;20062;-67
2022/07/31 05:59:06;;;;;;;5.20;3.65;;;15.40;99.90;;;;;;5090919;28;20442;-67
2022/07/31 06:01:33;;;;;;;;;;;15.40;99.90;;;;;;5089675;28;20078;-67
2022/07/31 06:04:03;;;;;;;4.05;3.65;;;15.40;99.90;;;;;;5094362;28;19926;-66
2022/07/31 06:06:36;;;;;;;4.28;3.78;;;15.40;99.90;;;;;;5094109;28;20085;-67
2022/07/31 06:09:03;;;;;;;;;;;15.50;99.90;;;;;;5086255;28;20567;-67
2022/07/31 06:11:35;;;;;;;5.10;4.20;;;15.60;99.90;;;;;;5093896;28;19919;-67
2022/07/31 06:14:02;;;;;;;9.88;4.05;;;15.70;99.90;;;;;;5096199;27;20135;-67
2022/07/31 06:16:48;;;;;;;5.22;4.28;;;15.70;99.90;;;;;;5105962;27;20043;-66
2022/07/31 06:19:17;;;;;;;6.90;4.30;;;15.70;99.90;;;;;;5114380;27;20051;-67
2022/07/31 06:21:50;;;;;;;5.68;4.35;;;15.70;99.90;;;;;;5111278;27;20069;-67
2022/07/31 06:24:20;;;;;;;5.47;3.58;;;15.80;99.90;;;;;;5105928;27;20413;-67
2022/07/31 06:26:47;;;;;;;10.25;3.30;;;15.80;99.90;;;;;;5114273;27;20495;-68
2022/07/31 06:29:14;;;;;;;8.00;3.70;;;15.90;99.90;;;;;;5114128;27;20039;-67
2022/07/31 06:31:41;;;;;;;6.47;3.95;;;15.80;99.90;;;;;;5125356;27;20039;-68
2022/07/31 06:34:08;;;;;;;6.22;4.07;;;15.80;99.90;;;;;;5081494;28;20040;-66
2022/07/31 06:36:39;;;;;;;5.22;4.13;;;15.70;99.90;;;;;;5073642;28;20048;-66
2022/07/31 06:39:10;;;;;;;7.53;4.00;;;15.70;99.90;;;;;;5073384;28;20059;-66
2022/07/31 06:42:21;;;;;;;5.07;4.53;;;15.70;99.90;;;;;;5035230;28;20099;-66
2022/07/31 06:45:03;;;;;;;;;;;15.70;99.90;;;;;;5029348;28;20046;-66
2022/07/31 06:47:48;;;;;;;4.93;4.43;;;15.70;99.90;;;;;;5090505;27;19980;-66
2022/07/31 06:50:26;;;;;;;6.50;4.85;;;15.70;99.90;;;;;;5095533;22;20052;-61
2022/07/31 06:53:04;;;;;;;5.53;4.47;;;15.70;99.90;;;;;;5089325;28;20120;-61
2022/07/31 06:55:32;;;;;;;6.10;4.57;;;15.80;99.90;;;;;;5089325;28;20094;-61
2022/07/31 06:57:59;;;;;;;6.45;4.55;;;16.00;99.90;;;;;;5070947;28;20709;-61
2022/07/31 07:00:26;;;;;;;5.65;4.80;;;16.20;99.90;;;;;;5078161;28;20090;-62
2022/07/31 07:02:52;;;;;;;4.93;4.40;;;16.40;99.90;;;;;;5052571;28;20048;-61
2022/07/31 07:05:20;;;;;;;7.15;4.18;;;16.60;99.90;;;;;;5052269;28;20068;-60
2022/07/31 07:07:50;;;;;;;5.40;3.80;;;16.80;99.90;;;;;;5051135;28;20048;-61
2022/07/31 07:10:17;;;;;;;5.35;4.53;;;17.00;99.90;;;;;;5069039;28;20068;-61
2022/07/31 07:12:59;;;;;;;5.03;4.22;;;17.20;99.90;;;;;;5071269;28;20051;-61
2022/07/31 07:15:29;;;;;;;7.60;4.00;;;17.30;99.90;;;;;;5052469;28;20139;-60
2022/07/31 07:17:56;;;;;;;6.97;4.07;;;17.40;99.90;;;;;;5070612;28;20036;-61
2022/07/31 07:20:43;;;;;;;4.38;3.55;;;17.60;99.90;;;;;;5063767;28;20056;-61
2022/07/31 07:23:10;;;;;;;4.45;3.42;;;17.80;99.90;;;;;;5052476;28;20128;-61
2022/07/31 07:25:49;;;;;;;4.40;3.47;;;18.00;99.90;;;;;;5051788;28;20041;-61
2022/07/31 07:28:16;;;;;;;4.03;3.63;;;18.00;99.90;;;;;;5052258;28;20090;-61
2022/07/31 07:30:58;;;;;;;3.50;3.20;;;18.00;99.90;;;;;;5067748;28;20037;-61
2022/07/31 07:33:25;;;;;;;6.03;3.90;;;18.20;99.90;;;;;;5055820;28;20136;-61
2022/07/31 07:36:10;;;;;;;9.93;3.90;;;18.20;99.90;;;;;;5077637;28;20044;-61
2022/07/31 07:38:53;;;;;;;4.15;3.20;;;18.40;99.90;;;;;;5036689;28;20515;-62
2022/07/31 07:41:23;;;;;;;4.60;3.00;;;18.80;99.90;;;;;;5035976;28;20493;-61
2022/07/31 07:43:50;;;;;;;3.60;3.30;;;19.00;99.90;;;;;;5067698;28;20049;-61
2022/07/31 07:46:22;;;;;;;5.82;3.30;;;19.10;99.90;;;;;;5056343;28;20087;-61
2022/07/31 07:48:53;;;;;;;6.38;2.92;;;19.30;99.90;;;;;;5072789;28;20051;-61
2022/07/31 07:51:43;;;;;;;2.90;2.60;;;19.40;99.90;;;;;;5060731;28;20052;-61
2022/07/31 07:54:36;;;;;;;4.78;3.13;;;19.20;99.90;;;;;;5074304;28;20068;-61
2022/07/31 07:57:19;;;;;;;3.08;2.53;;;19.10;99.90;;;;;;5074711;28;20132;-61
2022/07/31 08:00:21;;;;;;;4.32;2.97;;;18.90;99.90;;;;;;5067296;28;20527;-61
2022/07/31 08:02:57;;;;;;;3.40;3.10;;;18.90;99.90;;;;;;5055938;28;20048;-61
2022/07/31 08:05:44;;;;;;;3.13;2.85;;;18.90;99.90;;;;;;5072022;28;20064;-61
2022/07/31 08:08:11;;;;;;;4.93;3.33;;;19.00;99.90;;;;;;5064247;28;20040;-62
2022/07/31 08:10:59;;;;;;;3.65;3.08;;;18.90;99.90;;;;;;5051818;28;20083;-61
2022/07/31 08:13:36;;;;;;;;;;;18.80;99.90;;;;;;5073198;28;20059;-61
2022/07/31 08:16:26;;;;;;;7.63;3.30;;;18.90;99.90;;;;;;5045583;28;19947;-62
2022/07/31 08:18:56;;;;;;;5.38;2.80;;;19.10;99.90;;;;;;5063925;28;20044;-61
2022/07/31 08:21:24;;;;;;;4.03;2.70;;;19.30;99.90;;;;;;5070504;28;20492;-61
2022/07/31 08:23:51;;;;;;;3.85;2.65;;;19.30;99.90;;;;;;5054491;28;20048;-61
2022/07/31 08:26:19;;;;;;;3.17;2.50;;;19.30;99.90;;;;;;5055186;28;20059;-61
2022/07/31 08:28:47;;;;;;;6.50;3.80;;;19.40;99.90;;;;;;5069538;28;20051;-62
2022/07/31 08:31:20;;;;;;;3.70;2.88;;;19.40;99.90;;;;;;5054848;28;20036;-61
2022/07/31 08:34:03;;;;;;;5.03;2.50;;;19.30;99.90;;;;;;5069986;28;20070;-62
2022/07/31 08:36:32;;;;;;;4.25;2.10;;;19.40;99.90;;;;;;5054117;28;20409;-61
2022/07/31 08:38:59;;;;;;;5.55;2.58;;;19.60;99.90;;;;;;5072830;28;20044;-61
2022/07/31 08:41:47;;;;;;;4.68;2.75;;;19.80;99.90;;;;;;5066636;28;20044;-61
2022/07/31 08:44:14;;;;;;;2.53;2.22;;;19.90;99.90;;;;;;5057357;28;20044;-61
2022/07/31 08:46:44;;;;;;;2.67;2.47;;;20.10;99.90;;;;;;5058303;28;20045;-61
2022/07/31 08:49:14;;;;;;;3.97;2.20;;;20.30;99.90;;;;;;5058890;28;20036;-61
2022/07/31 08:51:44;;;;;;;6.32;2.40;;;20.60;99.90;;;;;;5057099;28;20551;-61
2022/07/31 08:54:22;;;;;;;2.75;2.20;;;20.50;99.90;;;;;;5079007;28;20093;-61
2022/07/31 08:56:51;;;;;;;3.40;2.17;;;20.30;99.90;;;;;;5083277;28;20059;-61
2022/07/31 08:59:20;;;;;;;4.97;2.13;;;20.30;99.90;;;;;;5066475;28;20040;-61
2022/07/31 09:01:47;;;;;;;2.88;2.40;;;20.70;99.90;;;;;;5073877;28;20049;-61
2022/07/31 09:04:14;;;;;;;2.78;2.53;;;21.00;99.90;;;;;;5071713;28;20090;-61
2022/07/31 09:06:41;;;;;;;3.80;2.40;;;21.60;99.90;;;;;;5066350;28;20047;-61
2022/07/31 09:09:08;;;;;;;3.00;2.20;;;22.10;99.90;;;;;;5048100;28;20040;-61
2022/07/31 09:11:48;;;;;;;3.00;2.50;;;22.30;99.90;;;;;;5057912;28;20123;-61
2022/07/31 09:14:35;;;;;;;3.97;2.78;;;22.00;99.90;;;;;;5070444;28;20049;-61
2022/07/31 09:17:08;;;;;;;3.13;2.50;;;21.70;99.90;;;;;;5067357;28;20451;-61
2022/07/31 09:19:40;;;;;;;3.40;2.67;;;20.70;99.90;;;;;;5079874;28;20558;-61
2022/07/31 09:22:28;;;;;;;3.10;2.80;;;20.40;99.90;;;;;;5065816;28;20044;-61
2022/07/31 09:25:14;;;;;;;3.25;2.88;;;19.80;99.90;;;;;;5065236;28;20139;-60
2022/07/31 09:27:42;;;;;;;4.85;3.10;;;19.70;99.90;;;;;;5065857;28;20101;-61
2022/07/31 09:30:09;;;;;;;3.85;3.45;;;19.70;99.90;;;;;;5067233;28;20040;-61
2022/07/31 09:33:13;;;;;;;3.53;2.90;;;19.70;99.90;;;;;;5083788;28;20043;-60
2022/07/31 09:35:58;;;;;;;4.00;2.53;;;19.90;99.90;;;;;;5074236;28;20049;-61
2022/07/31 09:38:32;;;;;;;3.85;2.92;;;19.80;99.90;;;;;;5088532;28;20040;-61
2022/07/31 09:41:20;;;;;;;3.97;2.90;;;19.80;99.90;;;;;;5078817;28;20058;-61
2022/07/31 09:44:13;;;;;;;5.10;3.40;;;19.70;99.90;;;;;;5073091;28;20040;-61
2022/07/31 09:46:41;;;;;;;4.82;3.60;;;19.60;99.90;;;;;;5067318;28;20408;-60
2022/07/31 09:49:08;;;;;;;3.92;3.00;;;19.10;99.90;;;;;;5073746;28;20062;-60
2022/07/31 09:51:43;;;;;;;3.47;2.90;;;19.00;99.90;;;;;;5081789;28;20139;-60
2022/07/31 09:54:21;;;;;;;3.72;3.42;;;19.00;99.90;;;;;;5069920;28;20055;-60
2022/07/31 09:57:08;;;;;;;6.30;2.95;;;18.90;99.90;;;;;;5080916;28;20048;-59
2022/07/31 09:59:36;;;;;;;4.65;3.03;;;18.70;99.90;;;;;;5068255;28;20067;-60
2022/07/31 10:02:04;;;;;;;4.72;3.28;;;18.50;99.90;;;;;;5061676;28;20036;-60
2022/07/31 10:04:31;;;;;;;3.90;3.03;;;18.50;99.90;;;;;;5059676;28;20040;-59
2022/07/31 10:06:58;;;;;;;5.05;3.22;;;18.50;99.90;;;;;;5067479;28;20071;-59
2022/07/31 10:09:27;;;;;;;5.90;3.55;;;18.70;99.90;;;;;;5079817;28;20120;-59
2022/07/31 10:12:16;;;;;;;4.05;2.85;;;18.80;99.90;;;;;;5041193;28;20317;-59
2022/07/31 10:14:45;;;;;;;6.93;3.22;;;19.00;99.90;;;;;;5063208;28;20087;-59
2022/07/31 10:17:16;;;;;;;4.97;3.20;;;19.00;99.90;;;;;;5084025;28;20066;-60
2022/07/31 10:19:52;;;;;;;4.53;3.17;;;19.30;99.90;;;;;;5081107;28;20080;-59
2022/07/31 10:22:42;;;;;;;3.50;3.20;;;19.70;99.90;;;;;;5055780;28;20130;-60
2022/07/31 10:25:19;;;;;;;4.40;3.33;;;19.70;99.90;;;;;;5070386;28;20090;-61
2022/07/31 10:27:47;;;;;;;3.83;3.38;;;19.90;99.90;;;;;;5053488;28;20075;-60
2022/07/31 10:30:15;;;;;;;5.00;2.72;;;19.90;99.90;;;;;;5068885;28;20040;-60
2022/07/31 10:32:50;;;;;;;4.15;3.33;;;19.60;99.90;;;;;;5061983;28;20547;-60
2022/07/31 10:35:26;;;;;;;5.80;3.17;;;19.50;99.90;;;;;;5071568;28;20048;-60
2022/07/31 10:38:19;;;;;;;3.38;3.08;;;19.70;99.90;;;;;;5071593;28;20080;-60
2022/07/31 10:41:30;;;;;;;5.22;2.90;;;19.70;99.90;;;;;;5060579;28;20135;-60
2022/07/31 10:44:12;;;;;;;3.70;3.22;;;19.80;99.90;;;;;;5061808;28;20055;-60
2022/07/31 10:47:17;;;;;;;6.15;3.05;;;19.70;99.90;;;;;;5064125;28;20532;-60
2022/07/31 10:50:04;;;;;;;3.83;3.25;;;19.60;99.90;;;;;;5069433;28;20046;-59
2022/07/31 10:52:39;;;;;;;4.15;2.80;;;19.70;99.90;;;;;;5071318;28;20082;-60
2022/07/31 10:55:25;;;;;;;7.13;3.25;;;20.00;99.90;;;;;;5070424;28;20378;-60
2022/07/31 10:58:19;;;;;;;3.22;2.92;;;20.60;99.90;;;;;;5062760;28;20482;-60
2022/07/31 11:00:51;;;;;;;2.67;2.42;;;21.10;99.90;;;;;;5070596;28;20121;-60
2022/07/31 11:03:47;;;;;;;5.05;2.70;;;21.40;99.90;;;;;;5063499;28;20102;-61
2022/07/31 11:06:52;;;;;;;3.75;2.67;;;21.40;99.90;;;;;;5031326;28;20461;-59
2022/07/31 11:09:55;;;;;;;3.25;2.75;;;21.50;99.90;;;;;;5012848;28;20373;-60
2022/07/31 11:12:41;;;;;;;2.72;2.40;;;21.60;99.90;;;;;;5067126;28;20054;-60
2022/07/31 11:15:31;;;;;;;4.25;2.40;;;21.80;99.90;;;;;;5070451;28;20136;-60
2022/07/31 11:18:19;;;;;;;3.30;2.97;;;21.60;99.90;;;;;;5055423;28;20528;-59
2022/07/31 11:21:05;;;;;;;4.75;2.67;;;21.90;99.90;;;;;;5054689;28;20094;-60
2022/07/31 11:23:51;;;;;;;3.67;2.70;;;22.20;99.90;;;;;;5070318;28;20106;-60
2022/07/31 11:26:28;;;;;;;3.83;2.50;;;23.10;99.90;;;;;;5075027;28;20110;-60
2022/07/31 11:29:07;;;;;;;7.68;2.67;;;23.60;99.90;;;;;;5075016;28;20043;-60
2022/07/31 11:31:54;;;;;;;6.13;2.75;;;23.90;99.90;;;;;;5074199;28;20165;-60
2022/07/31 11:34:21;;;;;;;;;;;24.10;99.90;;;;;;5075198;28;20142;-60
2022/07/31 11:36:48;;;;;;;3.97;2.45;;;23.90;99.90;;;;;;5074639;28;19925;-60
2022/07/31 11:39:17;;;;;;;3.47;2.50;;;23.80;99.90;;;;;;5074522;28;20094;-61
2022/07/31 11:41:46;;;;;;;2.83;2.60;;;23.90;99.90;;;;;;5073654;28;20055;-60
2022/07/31 11:44:20;;;;;;;2.80;2.40;;;23.50;99.90;;;;;;5074725;28;20044;-61
2022/07/31 11:46:49;;;;;;;3.38;2.60;;;23.30;99.90;;;;;;5074544;28;20045;-60
2022/07/31 11:49:21;;;;;;;3.30;2.60;;;23.80;99.90;;;;;;5073672;28;20045;-60
2022/07/31 11:52:11;;;;;;;3.85;2.33;;;24.10;99.90;;;;;;5066610;28;20047;-60
2022/07/31 11:55:12;;;;;;;3.90;2.70;;;24.30;99.90;;;;;;5074259;28;20552;-61
2022/07/31 11:57:40;;;;;;;4.07;2.58;;;24.30;99.90;;;;;;5074505;28;20048;-60
2022/07/31 12:00:19;;;;;;;2.85;2.40;;;24.50;99.90;;;;;;5060462;28;20439;-60
2022/07/31 12:02:56;;;;;;;3.42;2.58;;;24.80;99.90;;;;;;5074320;28;20044;-60
2022/07/31 12:05:23;;;;;;;3.13;2.45;;;25.00;99.90;;;;;;5074263;28;20389;-61
2022/07/31 12:08:06;;;;;;;2.83;2.10;;;25.10;99.90;;;;;;5073746;28;20143;-61
2022/07/31 12:10:33;;;;;;;6.03;2.45;;;25.40;99.90;;;;;;5073655;28;20485;-60
2022/07/31 12:13:01;;;;;;;2.67;2.30;;;25.40;99.90;;;;;;5074069;28;20106;-60
2022/07/31 12:15:28;;;;;;;2.72;2.22;;;25.00;99.90;;;;;;5074107;28;20398;-59
2022/07/31 12:18:03;;;;;;;5.90;2.33;;;24.60;99.90;;;;;;5073121;28;20052;-60
2022/07/31 12:20:31;;;;;;;5.43;2.55;;;24.10;99.90;;;;;;5073355;28;20045;-60
2022/07/31 12:23:04;;;;;;;5.90;2.42;;;23.80;99.90;;;;;;5074058;28;20052;-59
2022/07/31 12:25:42;;;;;;;2.60;2.40;;;23.60;99.90;;;;;;5072942;28;20060;-59
2022/07/31 12:28:11;;;;;;;;;;;23.10;99.90;;;;;;5066230;28;20068;-60
2022/07/31 12:30:38;;;;;;;5.75;2.92;;;22.70;99.90;;;;;;5073133;28;20388;-60
2022/07/31 12:33:07;;;;;;;4.32;2.72;;;22.60;99.90;;;;;;5073877;28;20037;-59
2022/07/31 12:35:43;;;;;;;2.70;2.47;;;22.20;99.90;;;;;;5073371;28;20032;-59
2022/07/31 12:38:26;;;;;;;4.68;2.83;;;22.10;99.90;;;;;;5052378;28;20135;-60
2022/07/31 12:41:13;;;;;;;3.10;2.80;;;22.10;99.90;;;;;;5072769;28;20048;-60
2022/07/31 12:43:39;;;;;;;3.95;2.88;;;22.10;99.90;;;;;;5073837;28;20045;-59
2022/07/31 12:46:21;;;;;;;3.35;2.63;;;21.90;99.90;;;;;;5072471;28;20046;-60
2022/07/31 12:48:48;;;;;;;3.05;2.72;;;22.20;99.90;;;;;;5073509;28;20037;-60
2022/07/31 12:55:40;;;;;;;3.45;2.30;;;23.00;99.90;;;;;;5055435;28;19916;-64
2022/07/31 12:58:06;;;;;;;3.17;2.83;;;23.80;99.90;;;;;;5077202;28;20040;-63
2022/07/31 13:00:33;;;;;;;2.78;2.58;;;23.90;99.90;;;;;;5072224;28;20521;-64
2022/07/31 13:03:05;;;;;;;3.17;2.90;;;23.60;99.90;;;;;;5073652;28;20052;-64
2022/07/31 13:05:32;;;;;;;3.05;2.53;;;23.20;99.90;;;;;;5085810;28;20044;-63
2022/07/31 13:07:59;;;;;;;4.18;2.55;;;22.80;99.90;;;;;;5073081;28;20043;-63
2022/07/31 13:10:27;;;;;;;6.85;2.80;;;22.60;99.90;;;;;;5072252;28;20052;-63
2022/07/31 13:12:58;;;;;;;3.95;2.63;;;22.60;99.90;;;;;;5074557;28;20119;-64
2022/07/31 13:15:28;;;;;;;3.55;2.80;;;23.40;99.90;;;;;;5087499;28;20040;-63
2022/07/31 13:17:57;;;;;;;4.22;2.45;;;23.70;99.90;;;;;;5092915;28;20099;-64
2022/07/31 13:20:24;;;;;;;3.63;2.28;;;23.80;99.90;;;;;;5082784;28;20084;-64
2022/07/31 13:22:51;;;;;;;;;;;23.50;99.90;;;;;;5080920;28;20049;-64
2022/07/31 13:25:18;;;;;;;5.20;2.88;;;23.60;99.90;;;;;;5093118;28;19973;-64
2022/07/31 13:27:46;;;;;;;2.95;2.50;;;23.80;99.90;;;;;;5092732;28;20135;-64
2022/07/31 13:30:13;;;;;;;2.58;2.38;;;24.10;99.90;;;;;;5080948;28;20041;-64